Aviation Digital Data Service (ADDS)

Output produced by METARs form (0347 UTC 19 September 2014)
found at http://aviationweather.gov/adds/metars/
 
KBHB 182322Z 1900/1924 34006KT P6SM SCT250 
     FM191800 VRB03KT P6SM SKC AMD LTD TO CLD VIS AND WIND